sensor_id;sensor_type;location;lat;lon;timestamp;P1;durP1;ratioP1;P2;durP2;ratioP2
8474;SDS011;4274;52.012;8.448;2022-11-06T00:01:21;73.53;;;9.30;;
8474;SDS011;4274;52.012;8.448;2022-11-06T00:03:47;50.70;;;8.73;;
8474;SDS011;4274;52.012;8.448;2022-11-06T00:06:15;55.27;;;7.90;;
8474;SDS011;4274;52.012;8.448;2022-11-06T00:09:01;53.57;;;8.03;;
8474;SDS011;4274;52.012;8.448;2022-11-06T00:11:30;51.23;;;8.00;;
8474;SDS011;4274;52.012;8.448;2022-11-06T00:13:56;53.17;;;7.73;;
8474;SDS011;4274;52.012;8.448;2022-11-06T00:16:22;49.83;;;7.97;;
8474;SDS011;4274;52.012;8.448;2022-11-06T00:18:48;51.07;;;7.40;;
8474;SDS011;4274;52.012;8.448;2022-11-06T00:21:18;50.10;;;7.53;;
8474;SDS011;4274;52.012;8.448;2022-11-06T00:23:49;49.70;;;8.17;;
8474;SDS011;4274;52.012;8.448;2022-11-06T00:26:17;51.70;;;7.63;;
8474;SDS011;4274;52.012;8.448;2022-11-06T00:28:44;48.70;;;7.47;;
8474;SDS011;4274;52.012;8.448;2022-11-06T00:31:11;50.77;;;8.00;;
8474;SDS011;4274;52.012;8.448;2022-11-06T00:33:38;49.43;;;7.83;;
8474;SDS011;4274;52.012;8.448;2022-11-06T00:36:05;56.53;;;7.60;;
8474;SDS011;4274;52.012;8.448;2022-11-06T00:38:32;59.73;;;8.37;;
8474;SDS011;4274;52.012;8.448;2022-11-06T00:41:04;51.13;;;7.77;;
8474;SDS011;4274;52.012;8.448;2022-11-06T00:43:32;53.00;;;6.97;;
8474;SDS011;4274;52.012;8.448;2022-11-06T00:46:00;52.43;;;7.37;;
8474;SDS011;4274;52.012;8.448;2022-11-06T00:48:30;51.67;;;7.70;;
8474;SDS011;4274;52.012;8.448;2022-11-06T00:51:03;51.30;;;6.77;;
8474;SDS011;4274;52.012;8.448;2022-11-06T00:53:30;52.50;;;8.13;;
8474;SDS011;4274;52.012;8.448;2022-11-06T00:56:02;52.43;;;7.67;;
8474;SDS011;4274;52.012;8.448;2022-11-06T00:58:29;54.40;;;8.20;;
8474;SDS011;4274;52.012;8.448;2022-11-06T01:00:54;50.67;;;7.57;;
8474;SDS011;4274;52.012;8.448;2022-11-06T01:03:20;52.27;;;7.97;;
8474;SDS011;4274;52.012;8.448;2022-11-06T01:05:45;54.10;;;7.63;;
8474;SDS011;4274;52.012;8.448;2022-11-06T01:08:11;49.57;;;7.90;;
8474;SDS011;4274;52.012;8.448;2022-11-06T01:10:36;58.80;;;8.37;;
8474;SDS011;4274;52.012;8.448;2022-11-06T01:13:02;51.60;;;8.00;;
8474;SDS011;4274;52.012;8.448;2022-11-06T01:15:28;55.57;;;8.03;;
8474;SDS011;4274;52.012;8.448;2022-11-06T01:17:53;53.33;;;8.60;;
8474;SDS011;4274;52.012;8.448;2022-11-06T01:20:19;56.47;;;9.30;;
8474;SDS011;4274;52.012;8.448;2022-11-06T01:22:44;50.73;;;7.40;;
8474;SDS011;4274;52.012;8.448;2022-11-06T01:25:10;51.60;;;8.30;;
8474;SDS011;4274;52.012;8.448;2022-11-06T01:27:35;48.50;;;7.60;;
8474;SDS011;4274;52.012;8.448;2022-11-06T01:30:01;51.27;;;7.90;;
8474;SDS011;4274;52.012;8.448;2022-11-06T01:32:27;51.30;;;8.03;;
8474;SDS011;4274;52.012;8.448;2022-11-06T01:34:52;51.17;;;7.73;;
8474;SDS011;4274;52.012;8.448;2022-11-06T01:37:18;55.07;;;7.73;;
8474;SDS011;4274;52.012;8.448;2022-11-06T01:39:43;52.30;;;8.50;;
8474;SDS011;4274;52.012;8.448;2022-11-06T01:42:10;50.50;;;7.73;;
8474;SDS011;4274;52.012;8.448;2022-11-06T01:49:48;52.77;;;8.33;;
8474;SDS011;4274;52.012;8.448;2022-11-06T01:52:16;51.37;;;8.33;;
8474;SDS011;4274;52.012;8.448;2022-11-06T01:54:43;51.03;;;8.30;;
8474;SDS011;4274;52.012;8.448;2022-11-06T01:57:12;50.80;;;8.80;;
8474;SDS011;4274;52.012;8.448;2022-11-06T01:59:38;54.60;;;8.40;;
8474;SDS011;4274;52.012;8.448;2022-11-06T02:02:07;53.77;;;8.17;;
8474;SDS011;4274;52.012;8.448;2022-11-06T02:04:35;51.77;;;9.13;;
8474;SDS011;4274;52.012;8.448;2022-11-06T02:07:04;56.30;;;9.20;;
8474;SDS011;4274;52.012;8.448;2022-11-06T02:09:31;53.47;;;8.00;;
8474;SDS011;4274;52.012;8.448;2022-11-06T02:12:02;52.27;;;8.10;;
8474;SDS011;4274;52.012;8.448;2022-11-06T02:22:54;51.80;;;7.90;;
8474;SDS011;4274;52.012;8.448;2022-11-06T02:25:44;48.47;;;7.50;;
8474;SDS011;4274;52.012;8.448;2022-11-06T02:28:23;49.50;;;7.97;;
8474;SDS011;4274;52.012;8.448;2022-11-06T02:30:55;60.13;;;7.67;;
8474;SDS011;4274;52.012;8.448;2022-11-06T02:33:25;50.87;;;7.60;;
8474;SDS011;4274;52.012;8.448;2022-11-06T02:36:06;51.80;;;7.87;;
8474;SDS011;4274;52.012;8.448;2022-11-06T02:38:36;48.67;;;6.77;;
8474;SDS011;4274;52.012;8.448;2022-11-06T02:41:10;47.57;;;7.00;;
8474;SDS011;4274;52.012;8.448;2022-11-06T02:44:00;49.27;;;7.43;;
8474;SDS011;4274;52.012;8.448;2022-11-06T02:46:42;55.77;;;6.43;;
8474;SDS011;4274;52.012;8.448;2022-11-06T02:49:15;51.13;;;7.63;;
8474;SDS011;4274;52.012;8.448;2022-11-06T02:51:47;56.47;;;7.47;;
8474;SDS011;4274;52.012;8.448;2022-11-06T02:54:18;52.10;;;7.20;;
8474;SDS011;4274;52.012;8.448;2022-11-06T02:56:45;48.30;;;6.83;;
8474;SDS011;4274;52.012;8.448;2022-11-06T02:59:20;49.60;;;7.10;;
8474;SDS011;4274;52.012;8.448;2022-11-06T03:01:56;50.73;;;6.83;;
8474;SDS011;4274;52.012;8.448;2022-11-06T03:04:29;47.53;;;6.40;;
8474;SDS011;4274;52.012;8.448;2022-11-06T03:07:33;50.57;;;7.03;;
8474;SDS011;4274;52.012;8.448;2022-11-06T03:10:03;53.10;;;7.60;;
8474;SDS011;4274;52.012;8.448;2022-11-06T03:12:31;49.00;;;7.40;;
8474;SDS011;4274;52.012;8.448;2022-11-06T03:15:33;49.10;;;6.90;;
8474;SDS011;4274;52.012;8.448;2022-11-06T03:18:11;47.27;;;6.37;;
8474;SDS011;4274;52.012;8.448;2022-11-06T03:23:36;50.60;;;6.37;;
8474;SDS011;4274;52.012;8.448;2022-11-06T03:26:16;49.80;;;5.83;;
8474;SDS011;4274;52.012;8.448;2022-11-06T03:28:59;48.20;;;5.90;;
8474;SDS011;4274;52.012;8.448;2022-11-06T03:31:53;48.00;;;5.90;;
8474;SDS011;4274;52.012;8.448;2022-11-06T03:34:28;51.03;;;6.57;;
8474;SDS011;4274;52.012;8.448;2022-11-06T03:36:58;49.50;;;6.20;;
8474;SDS011;4274;52.012;8.448;2022-11-06T03:39:30;54.33;;;6.07;;
8474;SDS011;4274;52.012;8.448;2022-11-06T03:42:01;48.03;;;5.60;;
8474;SDS011;4274;52.012;8.448;2022-11-06T03:44:31;45.60;;;5.80;;
8474;SDS011;4274;52.012;8.448;2022-11-06T03:47:02;45.90;;;5.47;;
8474;SDS011;4274;52.012;8.448;2022-11-06T03:49:36;50.80;;;6.20;;
8474;SDS011;4274;52.012;8.448;2022-11-06T03:52:07;46.67;;;5.30;;
8474;SDS011;4274;52.012;8.448;2022-11-06T03:54:58;46.77;;;5.70;;
8474;SDS011;4274;52.012;8.448;2022-11-06T03:57:33;51.83;;;7.20;;
8474;SDS011;4274;52.012;8.448;2022-11-06T04:00:04;47.20;;;6.10;;
8474;SDS011;4274;52.012;8.448;2022-11-06T04:02:32;47.90;;;5.33;;
8474;SDS011;4274;52.012;8.448;2022-11-06T04:05:02;45.50;;;5.80;;
8474;SDS011;4274;52.012;8.448;2022-11-06T04:07:34;52.93;;;5.60;;
8474;SDS011;4274;52.012;8.448;2022-11-06T04:10:04;46.97;;;5.20;;
8474;SDS011;4274;52.012;8.448;2022-11-06T04:12:51;49.20;;;5.63;;
8474;SDS011;4274;52.012;8.448;2022-11-06T04:15:40;51.60;;;5.80;;
8474;SDS011;4274;52.012;8.448;2022-11-06T04:18:10;49.73;;;5.70;;
8474;SDS011;4274;52.012;8.448;2022-11-06T04:20:48;49.80;;;5.70;;
8474;SDS011;4274;52.012;8.448;2022-11-06T04:37:41;48.50;;;5.33;;
8474;SDS011;4274;52.012;8.448;2022-11-06T04:43:13;46.77;;;4.57;;
8474;SDS011;4274;52.012;8.448;2022-11-06T04:45:50;47.90;;;4.80;;
8474;SDS011;4274;52.012;8.448;2022-11-06T04:48:19;45.03;;;4.50;;
8474;SDS011;4274;52.012;8.448;2022-11-06T04:50:47;54.30;;;5.50;;
8474;SDS011;4274;52.012;8.448;2022-11-06T04:53:16;48.87;;;5.77;;
8474;SDS011;4274;52.012;8.448;2022-11-06T04:55:47;47.80;;;5.67;;
8474;SDS011;4274;52.012;8.448;2022-11-06T04:58:20;52.50;;;5.80;;
8474;SDS011;4274;52.012;8.448;2022-11-06T05:00:48;46.50;;;4.83;;
8474;SDS011;4274;52.012;8.448;2022-11-06T05:03:15;51.57;;;5.03;;
8474;SDS011;4274;52.012;8.448;2022-11-06T05:05:41;54.60;;;5.67;;
8474;SDS011;4274;52.012;8.448;2022-11-06T05:08:14;48.83;;;4.90;;
8474;SDS011;4274;52.012;8.448;2022-11-06T05:10:43;54.00;;;6.00;;
8474;SDS011;4274;52.012;8.448;2022-11-06T05:13:09;53.37;;;5.37;;
8474;SDS011;4274;52.012;8.448;2022-11-06T05:15:35;49.57;;;5.43;;
8474;SDS011;4274;52.012;8.448;2022-11-06T05:18:01;51.40;;;6.03;;
8474;SDS011;4274;52.012;8.448;2022-11-06T05:20:27;48.37;;;4.60;;
8474;SDS011;4274;52.012;8.448;2022-11-06T05:22:53;45.60;;;4.80;;
8474;SDS011;4274;52.012;8.448;2022-11-06T05:25:25;45.83;;;5.00;;
8474;SDS011;4274;52.012;8.448;2022-11-06T05:27:53;49.10;;;4.73;;
8474;SDS011;4274;52.012;8.448;2022-11-06T05:30:19;51.60;;;5.47;;
8474;SDS011;4274;52.012;8.448;2022-11-06T05:32:44;46.10;;;4.90;;
8474;SDS011;4274;52.012;8.448;2022-11-06T05:35:10;46.00;;;5.23;;
8474;SDS011;4274;52.012;8.448;2022-11-06T05:37:36;46.60;;;5.40;;
8474;SDS011;4274;52.012;8.448;2022-11-06T05:40:01;46.70;;;4.77;;
8474;SDS011;4274;52.012;8.448;2022-11-06T05:42:27;47.90;;;5.23;;
8474;SDS011;4274;52.012;8.448;2022-11-06T05:44:53;50.07;;;5.07;;
8474;SDS011;4274;52.012;8.448;2022-11-06T05:47:18;47.73;;;5.10;;
8474;SDS011;4274;52.012;8.448;2022-11-06T05:49:44;51.23;;;5.13;;
8474;SDS011;4274;52.012;8.448;2022-11-06T05:52:09;49.77;;;5.60;;
8474;SDS011;4274;52.012;8.448;2022-11-06T05:54:35;48.37;;;4.93;;
8474;SDS011;4274;52.012;8.448;2022-11-06T05:57:00;48.30;;;4.93;;
8474;SDS011;4274;52.012;8.448;2022-11-06T05:59:26;49.07;;;4.83;;
8474;SDS011;4274;52.012;8.448;2022-11-06T06:01:51;46.07;;;5.23;;
8474;SDS011;4274;52.012;8.448;2022-11-06T06:04:17;50.03;;;5.67;;
8474;SDS011;4274;52.012;8.448;2022-11-06T06:06:43;51.70;;;5.73;;
8474;SDS011;4274;52.012;8.448;2022-11-06T06:09:08;46.60;;;4.93;;
8474;SDS011;4274;52.012;8.448;2022-11-06T06:11:34;50.33;;;5.47;;
8474;SDS011;4274;52.012;8.448;2022-11-06T06:14:00;56.30;;;5.43;;
8474;SDS011;4274;52.012;8.448;2022-11-06T06:16:26;45.43;;;4.43;;
8474;SDS011;4274;52.012;8.448;2022-11-06T06:18:51;50.60;;;5.50;;
8474;SDS011;4274;52.012;8.448;2022-11-06T06:21:17;44.20;;;4.97;;
8474;SDS011;4274;52.012;8.448;2022-11-06T06:23:42;46.87;;;5.10;;
8474;SDS011;4274;52.012;8.448;2022-11-06T06:26:08;47.67;;;5.17;;
8474;SDS011;4274;52.012;8.448;2022-11-06T06:28:34;57.83;;;5.80;;
8474;SDS011;4274;52.012;8.448;2022-11-06T06:31:03;45.90;;;4.83;;
8474;SDS011;4274;52.012;8.448;2022-11-06T06:33:29;44.17;;;4.73;;
8474;SDS011;4274;52.012;8.448;2022-11-06T06:35:55;46.30;;;4.70;;
8474;SDS011;4274;52.012;8.448;2022-11-06T06:38:20;53.43;;;4.83;;
8474;SDS011;4274;52.012;8.448;2022-11-06T06:40:46;46.43;;;4.87;;
8474;SDS011;4274;52.012;8.448;2022-11-06T06:43:12;54.17;;;5.03;;
8474;SDS011;4274;52.012;8.448;2022-11-06T06:45:37;46.00;;;5.00;;
8474;SDS011;4274;52.012;8.448;2022-11-06T06:48:03;51.00;;;5.10;;
8474;SDS011;4274;52.012;8.448;2022-11-06T06:50:30;48.07;;;5.10;;
8474;SDS011;4274;52.012;8.448;2022-11-06T06:52:56;48.10;;;5.43;;
8474;SDS011;4274;52.012;8.448;2022-11-06T06:55:22;47.73;;;4.37;;
8474;SDS011;4274;52.012;8.448;2022-11-06T06:57:53;45.77;;;4.70;;
8474;SDS011;4274;52.012;8.448;2022-11-06T07:00:20;51.73;;;4.73;;
8474;SDS011;4274;52.012;8.448;2022-11-06T07:02:46;46.00;;;4.60;;
8474;SDS011;4274;52.012;8.448;2022-11-06T07:05:11;50.93;;;5.37;;
8474;SDS011;4274;52.012;8.448;2022-11-06T07:07:37;45.53;;;3.90;;
8474;SDS011;4274;52.012;8.448;2022-11-06T07:10:03;48.53;;;4.43;;
8474;SDS011;4274;52.012;8.448;2022-11-06T07:12:28;45.10;;;4.47;;
8474;SDS011;4274;52.012;8.448;2022-11-06T07:14:54;51.17;;;4.77;;
8474;SDS011;4274;52.012;8.448;2022-11-06T07:17:19;52.43;;;4.87;;
8474;SDS011;4274;52.012;8.448;2022-11-06T07:19:45;45.57;;;4.57;;
8474;SDS011;4274;52.012;8.448;2022-11-06T07:22:11;49.70;;;4.40;;
8474;SDS011;4274;52.012;8.448;2022-11-06T07:24:36;45.40;;;4.50;;
8474;SDS011;4274;52.012;8.448;2022-11-06T07:27:02;49.10;;;4.40;;
8474;SDS011;4274;52.012;8.448;2022-11-06T07:29:27;47.47;;;4.50;;
8474;SDS011;4274;52.012;8.448;2022-11-06T07:31:53;47.03;;;4.07;;
8474;SDS011;4274;52.012;8.448;2022-11-06T07:34:18;49.03;;;4.47;;
8474;SDS011;4274;52.012;8.448;2022-11-06T07:36:44;48.23;;;4.57;;
8474;SDS011;4274;52.012;8.448;2022-11-06T07:39:09;48.93;;;4.57;;
8474;SDS011;4274;52.012;8.448;2022-11-06T07:41:35;48.93;;;4.80;;
8474;SDS011;4274;52.012;8.448;2022-11-06T07:44:01;50.90;;;4.23;;
8474;SDS011;4274;52.012;8.448;2022-11-06T07:46:27;46.30;;;4.17;;
8474;SDS011;4274;52.012;8.448;2022-11-06T07:48:53;49.33;;;4.47;;
8474;SDS011;4274;52.012;8.448;2022-11-06T07:51:18;44.67;;;3.60;;
8474;SDS011;4274;52.012;8.448;2022-11-06T07:53:44;46.90;;;4.10;;
8474;SDS011;4274;52.012;8.448;2022-11-06T07:56:10;45.70;;;3.87;;
8474;SDS011;4274;52.012;8.448;2022-11-06T07:58:36;46.70;;;4.00;;
8474;SDS011;4274;52.012;8.448;2022-11-06T08:01:02;48.07;;;3.87;;
8474;SDS011;4274;52.012;8.448;2022-11-06T08:03:28;46.87;;;3.50;;
8474;SDS011;4274;52.012;8.448;2022-11-06T08:05:54;50.90;;;4.00;;
8474;SDS011;4274;52.012;8.448;2022-11-06T08:08:21;46.73;;;3.57;;
8474;SDS011;4274;52.012;8.448;2022-11-06T08:10:46;47.07;;;3.83;;
8474;SDS011;4274;52.012;8.448;2022-11-06T08:13:13;53.13;;;3.67;;
8474;SDS011;4274;52.012;8.448;2022-11-06T08:15:40;49.63;;;4.00;;
8474;SDS011;4274;52.012;8.448;2022-11-06T08:18:07;48.53;;;3.77;;
8474;SDS011;4274;52.012;8.448;2022-11-06T08:20:34;44.93;;;3.60;;
8474;SDS011;4274;52.012;8.448;2022-11-06T08:23:00;47.90;;;3.33;;
8474;SDS011;4274;52.012;8.448;2022-11-06T08:25:27;47.07;;;3.47;;
8474;SDS011;4274;52.012;8.448;2022-11-06T08:27:53;46.90;;;3.60;;
8474;SDS011;4274;52.012;8.448;2022-11-06T08:30:20;48.17;;;3.50;;
8474;SDS011;4274;52.012;8.448;2022-11-06T08:32:46;46.97;;;3.83;;
8474;SDS011;4274;52.012;8.448;2022-11-06T08:35:11;47.97;;;3.37;;
8474;SDS011;4274;52.012;8.448;2022-11-06T08:37:37;45.40;;;3.40;;
8474;SDS011;4274;52.012;8.448;2022-11-06T08:40:03;45.80;;;3.67;;
8474;SDS011;4274;52.012;8.448;2022-11-06T08:42:29;45.20;;;3.90;;
8474;SDS011;4274;52.012;8.448;2022-11-06T08:44:54;48.60;;;3.67;;
8474;SDS011;4274;52.012;8.448;2022-11-06T08:47:20;46.20;;;3.13;;
8474;SDS011;4274;52.012;8.448;2022-11-06T08:49:46;45.80;;;3.40;;
8474;SDS011;4274;52.012;8.448;2022-11-06T08:52:11;47.70;;;4.03;;
8474;SDS011;4274;52.012;8.448;2022-11-06T08:54:37;47.57;;;3.57;;
8474;SDS011;4274;52.012;8.448;2022-11-06T08:57:02;46.30;;;3.30;;
8474;SDS011;4274;52.012;8.448;2022-11-06T08:59:28;47.30;;;3.30;;
8474;SDS011;4274;52.012;8.448;2022-11-06T09:01:55;45.90;;;3.43;;
8474;SDS011;4274;52.012;8.448;2022-11-06T09:04:21;46.10;;;3.40;;
8474;SDS011;4274;52.012;8.448;2022-11-06T09:06:47;47.03;;;3.00;;
8474;SDS011;4274;52.012;8.448;2022-11-06T09:09:12;46.53;;;3.50;;
8474;SDS011;4274;52.012;8.448;2022-11-06T09:11:38;47.00;;;3.70;;
8474;SDS011;4274;52.012;8.448;2022-11-06T09:14:03;47.43;;;3.07;;
8474;SDS011;4274;52.012;8.448;2022-11-06T09:16:29;45.23;;;3.20;;
8474;SDS011;4274;52.012;8.448;2022-11-06T09:18:55;46.33;;;3.40;;
8474;SDS011;4274;52.012;8.448;2022-11-06T09:21:21;49.97;;;3.10;;
8474;SDS011;4274;52.012;8.448;2022-11-06T09:23:47;49.83;;;3.60;;
8474;SDS011;4274;52.012;8.448;2022-11-06T09:26:13;44.63;;;3.13;;
8474;SDS011;4274;52.012;8.448;2022-11-06T09:28:39;47.90;;;4.13;;
8474;SDS011;4274;52.012;8.448;2022-11-06T09:31:05;50.60;;;3.43;;
8474;SDS011;4274;52.012;8.448;2022-11-06T09:33:31;44.20;;;3.10;;
8474;SDS011;4274;52.012;8.448;2022-11-06T09:35:57;44.63;;;3.20;;
8474;SDS011;4274;52.012;8.448;2022-11-06T09:38:23;45.60;;;3.23;;
8474;SDS011;4274;52.012;8.448;2022-11-06T09:40:56;47.63;;;3.40;;
8474;SDS011;4274;52.012;8.448;2022-11-06T09:43:25;45.20;;;3.30;;
8474;SDS011;4274;52.012;8.448;2022-11-06T09:45:59;47.97;;;3.33;;
8474;SDS011;4274;52.012;8.448;2022-11-06T09:48:45;47.53;;;3.63;;
8474;SDS011;4274;52.012;8.448;2022-11-06T09:51:19;45.00;;;3.27;;
8474;SDS011;4274;52.012;8.448;2022-11-06T09:54:05;46.43;;;3.10;;
8474;SDS011;4274;52.012;8.448;2022-11-06T09:56:39;45.37;;;2.83;;
8474;SDS011;4274;52.012;8.448;2022-11-06T09:59:08;49.50;;;2.50;;
8474;SDS011;4274;52.012;8.448;2022-11-06T10:01:41;49.57;;;3.93;;
8474;SDS011;4274;52.012;8.448;2022-11-06T10:07:10;47.70;;;2.80;;
8474;SDS011;4274;52.012;8.448;2022-11-06T10:09:49;51.63;;;3.80;;
8474;SDS011;4274;52.012;8.448;2022-11-06T10:12:17;45.93;;;2.80;;
8474;SDS011;4274;52.012;8.448;2022-11-06T10:15:12;45.83;;;2.93;;
8474;SDS011;4274;52.012;8.448;2022-11-06T10:20:30;47.20;;;3.07;;
8474;SDS011;4274;52.012;8.448;2022-11-06T10:34:00;46.07;;;3.07;;
8474;SDS011;4274;52.012;8.448;2022-11-06T10:39:02;45.40;;;3.10;;
8474;SDS011;4274;52.012;8.448;2022-11-06T10:41:30;47.00;;;3.20;;
8474;SDS011;4274;52.012;8.448;2022-11-06T10:46:34;44.97;;;3.00;;
8474;SDS011;4274;52.012;8.448;2022-11-06T10:49:10;47.00;;;3.47;;
8474;SDS011;4274;52.012;8.448;2022-11-06T10:57:10;49.27;;;3.40;;
8474;SDS011;4274;52.012;8.448;2022-11-06T11:00:04;48.43;;;3.40;;
8474;SDS011;4274;52.012;8.448;2022-11-06T11:02:34;45.87;;;3.80;;
8474;SDS011;4274;52.012;8.448;2022-11-06T11:05:10;49.40;;;3.10;;
8474;SDS011;4274;52.012;8.448;2022-11-06T11:07:38;47.27;;;3.17;;
8474;SDS011;4274;52.012;8.448;2022-11-06T11:10:46;51.40;;;3.30;;
8474;SDS011;4274;52.012;8.448;2022-11-06T11:12:59;46.80;;;3.43;;
8474;SDS011;4274;52.012;8.448;2022-11-06T11:15:27;46.57;;;2.93;;
8474;SDS011;4274;52.012;8.448;2022-11-06T11:18:13;47.17;;;2.87;;
8474;SDS011;4274;52.012;8.448;2022-11-06T11:20:48;46.80;;;3.20;;
8474;SDS011;4274;52.012;8.448;2022-11-06T11:23:21;48.00;;;3.10;;
8474;SDS011;4274;52.012;8.448;2022-11-06T11:25:50;44.93;;;3.40;;
8474;SDS011;4274;52.012;8.448;2022-11-06T11:28:28;50.97;;;3.20;;
8474;SDS011;4274;52.012;8.448;2022-11-06T11:33:30;47.30;;;3.80;;
8474;SDS011;4274;52.012;8.448;2022-11-06T11:35:56;43.90;;;2.90;;
8474;SDS011;4274;52.012;8.448;2022-11-06T11:38:22;47.90;;;3.50;;
8474;SDS011;4274;52.012;8.448;2022-11-06T11:40:50;49.17;;;2.70;;
8474;SDS011;4274;52.012;8.448;2022-11-06T11:51:14;52.67;;;3.80;;
8474;SDS011;4274;52.012;8.448;2022-11-06T11:53:50;45.80;;;3.30;;
8474;SDS011;4274;52.012;8.448;2022-11-06T11:56:18;49.23;;;3.60;;
8474;SDS011;4274;52.012;8.448;2022-11-06T11:58:53;46.77;;;3.30;;
8474;SDS011;4274;52.012;8.448;2022-11-06T12:04:20;47.60;;;3.03;;
8474;SDS011;4274;52.012;8.448;2022-11-06T12:06:51;48.00;;;3.00;;
8474;SDS011;4274;52.012;8.448;2022-11-06T12:09:20;46.07;;;2.77;;
8474;SDS011;4274;52.012;8.448;2022-11-06T12:11:46;45.77;;;2.60;;
8474;SDS011;4274;52.012;8.448;2022-11-06T12:14:29;46.33;;;2.70;;
8474;SDS011;4274;52.012;8.448;2022-11-06T12:17:04;50.63;;;2.87;;
8474;SDS011;4274;52.012;8.448;2022-11-06T12:19:46;48.90;;;3.50;;
8474;SDS011;4274;52.012;8.448;2022-11-06T12:22:28;46.20;;;2.77;;
8474;SDS011;4274;52.012;8.448;2022-11-06T12:25:04;45.97;;;2.60;;
8474;SDS011;4274;52.012;8.448;2022-11-06T12:27:43;45.17;;;2.63;;
8474;SDS011;4274;52.012;8.448;2022-11-06T12:30:13;45.93;;;2.80;;
8474;SDS011;4274;52.012;8.448;2022-11-06T12:40:38;48.67;;;3.33;;
8474;SDS011;4274;52.012;8.448;2022-11-06T12:45:56;46.10;;;3.13;;
8474;SDS011;4274;52.012;8.448;2022-11-06T12:48:42;49.37;;;4.20;;
8474;SDS011;4274;52.012;8.448;2022-11-06T12:53:53;48.00;;;4.63;;
8474;SDS011;4274;52.012;8.448;2022-11-06T13:17:06;52.37;;;5.43;;
8474;SDS011;4274;52.012;8.448;2022-11-06T13:20:09;48.37;;;4.10;;
8474;SDS011;4274;52.012;8.448;2022-11-06T13:22:59;48.93;;;4.63;;
8474;SDS011;4274;52.012;8.448;2022-11-06T13:25:37;48.00;;;4.80;;
8474;SDS011;4274;52.012;8.448;2022-11-06T13:30:40;48.93;;;4.80;;
8474;SDS011;4274;52.012;8.448;2022-11-06T13:33:12;49.17;;;4.40;;
8474;SDS011;4274;52.012;8.448;2022-11-06T13:35:49;47.87;;;4.90;;
8474;SDS011;4274;52.012;8.448;2022-11-06T13:38:17;47.03;;;4.00;;
8474;SDS011;4274;52.012;8.448;2022-11-06T13:40:46;48.00;;;4.40;;
8474;SDS011;4274;52.012;8.448;2022-11-06T13:43:20;47.13;;;4.83;;
8474;SDS011;4274;52.012;8.448;2022-11-06T13:45:51;56.70;;;5.27;;
8474;SDS011;4274;52.012;8.448;2022-11-06T14:02:06;51.17;;;5.07;;
8474;SDS011;4274;52.012;8.448;2022-11-06T14:07:47;47.50;;;4.30;;
8474;SDS011;4274;52.012;8.448;2022-11-06T14:10:18;49.58;;;4.50;;
8474;SDS011;4274;52.012;8.448;2022-11-06T14:12:46;48.60;;;5.30;;
8474;SDS011;4274;52.012;8.448;2022-11-06T14:17:54;50.42;;;3.80;;
8474;SDS011;4274;52.012;8.448;2022-11-06T14:20:32;48.90;;;4.50;;
8474;SDS011;4274;52.012;8.448;2022-11-06T14:26:02;50.43;;;4.10;;
8474;SDS011;4274;52.012;8.448;2022-11-06T14:28:43;46.73;;;4.50;;
8474;SDS011;4274;52.012;8.448;2022-11-06T14:31:09;46.20;;;4.40;;
8474;SDS011;4274;52.012;8.448;2022-11-06T14:33:59;47.30;;;4.03;;
8474;SDS011;4274;52.012;8.448;2022-11-06T14:36:30;47.47;;;4.13;;
8474;SDS011;4274;52.012;8.448;2022-11-06T14:39:00;50.83;;;5.27;;
8474;SDS011;4274;52.012;8.448;2022-11-06T14:41:49;49.87;;;4.53;;
8474;SDS011;4274;52.012;8.448;2022-11-06T14:44:27;51.20;;;4.37;;
8474;SDS011;4274;52.012;8.448;2022-11-06T14:46:58;50.70;;;3.90;;
8474;SDS011;4274;52.012;8.448;2022-11-06T14:52:06;47.07;;;4.50;;
8474;SDS011;4274;52.012;8.448;2022-11-06T14:54:36;52.80;;;5.23;;
8474;SDS011;4274;52.012;8.448;2022-11-06T14:57:05;54.17;;;4.80;;
8474;SDS011;4274;52.012;8.448;2022-11-06T14:59:39;53.30;;;4.30;;
8474;SDS011;4274;52.012;8.448;2022-11-06T15:02:19;48.10;;;4.47;;
8474;SDS011;4274;52.012;8.448;2022-11-06T15:04:49;49.63;;;4.47;;
8474;SDS011;4274;52.012;8.448;2022-11-06T15:09:58;54.57;;;8.90;;
8474;SDS011;4274;52.012;8.448;2022-11-06T15:15:34;51.67;;;4.47;;
8474;SDS011;4274;52.012;8.448;2022-11-06T15:18:01;50.00;;;6.30;;
8474;SDS011;4274;52.012;8.448;2022-11-06T15:20:29;45.60;;;4.20;;
8474;SDS011;4274;52.012;8.448;2022-11-06T15:23:00;48.90;;;6.13;;
8474;SDS011;4274;52.012;8.448;2022-11-06T15:25:55;46.50;;;4.30;;
8474;SDS011;4274;52.012;8.448;2022-11-06T15:28:28;45.40;;;3.93;;
8474;SDS011;4274;52.012;8.448;2022-11-06T15:31:06;45.83;;;4.43;;
8474;SDS011;4274;52.012;8.448;2022-11-06T15:33:46;46.57;;;4.57;;
8474;SDS011;4274;52.012;8.448;2022-11-06T15:36:19;46.17;;;4.27;;
8474;SDS011;4274;52.012;8.448;2022-11-06T15:38:46;47.50;;;4.30;;
8474;SDS011;4274;52.012;8.448;2022-11-06T15:41:16;57.30;;;6.07;;
8474;SDS011;4274;52.012;8.448;2022-11-06T15:43:44;45.63;;;4.17;;
8474;SDS011;4274;52.012;8.448;2022-11-06T15:49:04;45.10;;;3.60;;
8474;SDS011;4274;52.012;8.448;2022-11-06T15:51:31;50.17;;;4.53;;
8474;SDS011;4274;52.012;8.448;2022-11-06T15:53:57;52.80;;;7.77;;
8474;SDS011;4274;52.012;8.448;2022-11-06T15:56:25;44.80;;;4.07;;
8474;SDS011;4274;52.012;8.448;2022-11-06T15:59:09;50.77;;;7.20;;
8474;SDS011;4274;52.012;8.448;2022-11-06T16:01:36;48.37;;;5.40;;
8474;SDS011;4274;52.012;8.448;2022-11-06T16:04:08;51.20;;;5.30;;
8474;SDS011;4274;52.012;8.448;2022-11-06T16:06:37;48.30;;;6.30;;
8474;SDS011;4274;52.012;8.448;2022-11-06T16:09:03;47.80;;;5.17;;
8474;SDS011;4274;52.012;8.448;2022-11-06T16:11:29;49.70;;;4.37;;
8474;SDS011;4274;52.012;8.448;2022-11-06T16:13:55;49.17;;;6.70;;
8474;SDS011;4274;52.012;8.448;2022-11-06T16:16:30;45.77;;;5.17;;
8474;SDS011;4274;52.012;8.448;2022-11-06T16:19:02;47.30;;;5.50;;
8474;SDS011;4274;52.012;8.448;2022-11-06T16:21:31;48.27;;;3.80;;
8474;SDS011;4274;52.012;8.448;2022-11-06T16:24:01;48.27;;;4.53;;
8474;SDS011;4274;52.012;8.448;2022-11-06T16:28:59;48.43;;;4.17;;
8474;SDS011;4274;52.012;8.448;2022-11-06T16:31:27;49.67;;;4.23;;
8474;SDS011;4274;52.012;8.448;2022-11-06T16:33:58;45.60;;;3.47;;
8474;SDS011;4274;52.012;8.448;2022-11-06T16:36:27;45.63;;;3.83;;
8474;SDS011;4274;52.012;8.448;2022-11-06T16:39:13;45.43;;;4.50;;
8474;SDS011;4274;52.012;8.448;2022-11-06T16:42:02;47.50;;;4.00;;
8474;SDS011;4274;52.012;8.448;2022-11-06T16:44:44;45.10;;;3.87;;
8474;SDS011;4274;52.012;8.448;2022-11-06T16:47:29;46.97;;;4.30;;
8474;SDS011;4274;52.012;8.448;2022-11-06T16:49:55;43.97;;;3.47;;
8474;SDS011;4274;52.012;8.448;2022-11-06T16:52:34;44.67;;;4.13;;
8474;SDS011;4274;52.012;8.448;2022-11-06T16:57:30;44.00;;;3.57;;
8474;SDS011;4274;52.012;8.448;2022-11-06T17:00:00;50.20;;;3.40;;
8474;SDS011;4274;52.012;8.448;2022-11-06T17:02:30;47.20;;;5.40;;
8474;SDS011;4274;52.012;8.448;2022-11-06T17:10:48;48.00;;;3.90;;
8474;SDS011;4274;52.012;8.448;2022-11-06T17:13:19;45.17;;;4.30;;
8474;SDS011;4274;52.012;8.448;2022-11-06T17:15:47;45.50;;;4.23;;
8474;SDS011;4274;52.012;8.448;2022-11-06T17:18:18;49.93;;;3.87;;
8474;SDS011;4274;52.012;8.448;2022-11-06T17:20:46;44.93;;;3.90;;
8474;SDS011;4274;52.012;8.448;2022-11-06T17:23:15;45.67;;;4.10;;
8474;SDS011;4274;52.012;8.448;2022-11-06T17:25:41;45.20;;;3.83;;
8474;SDS011;4274;52.012;8.448;2022-11-06T17:28:08;44.43;;;4.20;;
8474;SDS011;4274;52.012;8.448;2022-11-06T17:30:34;49.00;;;4.77;;
8474;SDS011;4274;52.012;8.448;2022-11-06T17:33:01;48.90;;;4.70;;
8474;SDS011;4274;52.012;8.448;2022-11-06T17:35:26;47.33;;;4.30;;
8474;SDS011;4274;52.012;8.448;2022-11-06T17:37:52;47.70;;;3.87;;
8474;SDS011;4274;52.012;8.448;2022-11-06T17:40:18;46.57;;;4.83;;
8474;SDS011;4274;52.012;8.448;2022-11-06T17:42:43;46.80;;;4.00;;
8474;SDS011;4274;52.012;8.448;2022-11-06T17:45:09;44.90;;;4.00;;
8474;SDS011;4274;52.012;8.448;2022-11-06T17:47:34;44.60;;;4.20;;
8474;SDS011;4274;52.012;8.448;2022-11-06T17:50:00;45.47;;;4.00;;
8474;SDS011;4274;52.012;8.448;2022-11-06T17:52:25;48.23;;;4.10;;
8474;SDS011;4274;52.012;8.448;2022-11-06T17:54:51;44.50;;;3.70;;